sensor_id;sensor_type;location;lat;lon;timestamp;temperature;humidity
42199;DHT22;27868;45.184;5.786;2023-04-25T04:38:49;14.30;79.10
42199;DHT22;27868;45.184;5.786;2023-04-25T04:44:17;14.30;78.10
42199;DHT22;27868;45.184;5.786;2023-04-25T04:47:02;14.20;77.80
42199;DHT22;27868;45.184;5.786;2023-04-25T04:49:50;14.30;78.00
42199;DHT22;27868;45.184;5.786;2023-04-25T04:52:35;14.30;77.20
42199;DHT22;27868;45.184;5.786;2023-04-25T04:55:20;14.40;77.00
42199;DHT22;27868;45.184;5.786;2023-04-25T04:58:05;14.30;77.20
42199;DHT22;27868;45.184;5.786;2023-04-25T05:03:32;14.30;76.60
42199;DHT22;27868;45.184;5.786;2023-04-25T05:06:17;14.30;76.50
42199;DHT22;27868;45.184;5.786;2023-04-25T05:09:02;14.30;77.00
42199;DHT22;27868;45.184;5.786;2023-04-25T05:11:46;14.30;77.00
42199;DHT22;27868;45.184;5.786;2023-04-25T05:14:31;14.20;76.50
42199;DHT22;27868;45.184;5.786;2023-04-25T05:17:15;14.20;77.80
42199;DHT22;27868;45.184;5.786;2023-04-25T05:20:00;14.20;78.20
42199;DHT22;27868;45.184;5.786;2023-04-25T05:22:45;14.20;79.00
42199;DHT22;27868;45.184;5.786;2023-04-25T05:25:29;14.20;79.20
42199;DHT22;27868;45.184;5.786;2023-04-25T05:28:14;14.20;79.60
42199;DHT22;27868;45.184;5.786;2023-04-25T05:30:58;14.20;79.90
42199;DHT22;27868;45.184;5.786;2023-04-25T05:33:43;14.10;80.30
42199;DHT22;27868;45.184;5.786;2023-04-25T05:36:27;14.10;80.50
42199;DHT22;27868;45.184;5.786;2023-04-25T05:39:12;14.20;81.00
42199;DHT22;27868;45.184;5.786;2023-04-25T05:41:57;14.20;81.40
42199;DHT22;27868;45.184;5.786;2023-04-25T05:44:42;14.20;81.70
42199;DHT22;27868;45.184;5.786;2023-04-25T05:47:26;14.20;81.90
42199;DHT22;27868;45.184;5.786;2023-04-25T05:50:11;14.20;82.00
42199;DHT22;27868;45.184;5.786;2023-04-25T05:52:56;14.20;82.30
42199;DHT22;27868;45.184;5.786;2023-04-25T05:55:40;14.20;82.60
42199;DHT22;27868;45.184;5.786;2023-04-25T05:58:25;14.20;82.80
42199;DHT22;27868;45.184;5.786;2023-04-25T06:01:09;14.20;82.90
42199;DHT22;27868;45.184;5.786;2023-04-25T06:03:54;14.30;82.90
42199;DHT22;27868;45.184;5.786;2023-04-25T06:06:39;14.30;82.80
42199;DHT22;27868;45.184;5.786;2023-04-25T06:09:23;14.30;83.10
42199;DHT22;27868;45.184;5.786;2023-04-25T06:12:08;14.30;83.10
42199;DHT22;27868;45.184;5.786;2023-04-25T06:14:52;14.30;83.00
42199;DHT22;27868;45.184;5.786;2023-04-25T06:17:37;14.40;83.10
42199;DHT22;27868;45.184;5.786;2023-04-25T06:20:21;14.40;83.40
42199;DHT22;27868;45.184;5.786;2023-04-25T06:23:08;14.40;83.50
42199;DHT22;27868;45.184;5.786;2023-04-25T06:25:52;14.40;83.40
42199;DHT22;27868;45.184;5.786;2023-04-25T06:28:37;14.40;83.60
42199;DHT22;27868;45.184;5.786;2023-04-25T06:31:21;14.50;83.50
42199;DHT22;27868;45.184;5.786;2023-04-25T06:34:06;14.50;83.20
42199;DHT22;27868;45.184;5.786;2023-04-25T06:36:51;14.50;83.20
42199;DHT22;27868;45.184;5.786;2023-04-25T06:39:35;14.60;83.30
42199;DHT22;27868;45.184;5.786;2023-04-25T06:42:20;14.60;83.40
42199;DHT22;27868;45.184;5.786;2023-04-25T06:45:04;14.60;83.00
42199;DHT22;27868;45.184;5.786;2023-04-25T06:47:49;14.70;82.50
42199;DHT22;27868;45.184;5.786;2023-04-25T06:50:34;14.70;82.10
42199;DHT22;27868;45.184;5.786;2023-04-25T06:53:18;14.70;81.70
42199;DHT22;27868;45.184;5.786;2023-04-25T06:56:03;14.80;81.00
42199;DHT22;27868;45.184;5.786;2023-04-25T06:58:47;14.80;80.70
42199;DHT22;27868;45.184;5.786;2023-04-25T07:01:32;14.80;80.40
42199;DHT22;27868;45.184;5.786;2023-04-25T07:04:17;14.90;80.00
42199;DHT22;27868;45.184;5.786;2023-04-25T07:07:01;14.90;79.70
42199;DHT22;27868;45.184;5.786;2023-04-25T07:09:47;15.00;79.20
42199;DHT22;27868;45.184;5.786;2023-04-25T07:12:32;15.00;78.50
42199;DHT22;27868;45.184;5.786;2023-04-25T07:15:16;14.90;78.80
42199;DHT22;27868;45.184;5.786;2023-04-25T07:18:01;14.90;79.10
42199;DHT22;27868;45.184;5.786;2023-04-25T07:20:45;14.90;79.10
42199;DHT22;27868;45.184;5.786;2023-04-25T07:23:30;15.00;78.50
42199;DHT22;27868;45.184;5.786;2023-04-25T07:26:15;15.00;78.40
42199;DHT22;27868;45.184;5.786;2023-04-25T07:28:59;15.10;78.10
42199;DHT22;27868;45.184;5.786;2023-04-25T07:31:44;15.00;77.70
42199;DHT22;27868;45.184;5.786;2023-04-25T07:34:28;15.10;78.00
42199;DHT22;27868;45.184;5.786;2023-04-25T07:37:14;15.10;77.90
42199;DHT22;27868;45.184;5.786;2023-04-25T07:39:59;15.10;78.00
42199;DHT22;27868;45.184;5.786;2023-04-25T07:42:43;15.20;76.90
42199;DHT22;27868;45.184;5.786;2023-04-25T07:45:28;15.20;76.80
42199;DHT22;27868;45.184;5.786;2023-04-25T07:48:16;15.30;76.30
42199;DHT22;27868;45.184;5.786;2023-04-25T07:51:02;15.30;77.30
42199;DHT22;27868;45.184;5.786;2023-04-25T07:53:48;15.40;77.20
42199;DHT22;27868;45.184;5.786;2023-04-25T07:56:33;15.50;76.60
42199;DHT22;27868;45.184;5.786;2023-04-25T07:59:17;15.50;76.10
42199;DHT22;27868;45.184;5.786;2023-04-25T08:02:02;15.60;76.30
42199;DHT22;27868;45.184;5.786;2023-04-25T08:04:46;15.70;75.80
42199;DHT22;27868;45.184;5.786;2023-04-25T08:07:31;15.80;75.50
42199;DHT22;27868;45.184;5.786;2023-04-25T08:10:15;15.80;75.00
42199;DHT22;27868;45.184;5.786;2023-04-25T08:13:00;15.90;73.90
42199;DHT22;27868;45.184;5.786;2023-04-25T08:15:44;15.80;73.80
42199;DHT22;27868;45.184;5.786;2023-04-25T08:18:29;15.80;74.30
42199;DHT22;27868;45.184;5.786;2023-04-25T08:21:15;15.80;74.30
42199;DHT22;27868;45.184;5.786;2023-04-25T08:23:59;15.80;74.40
42199;DHT22;27868;45.184;5.786;2023-04-25T08:26:44;15.80;74.10
42199;DHT22;27868;45.184;5.786;2023-04-25T08:29:28;15.80;73.10
42199;DHT22;27868;45.184;5.786;2023-04-25T08:32:13;15.80;74.60
42199;DHT22;27868;45.184;5.786;2023-04-25T08:34:58;15.90;74.70
42199;DHT22;27868;45.184;5.786;2023-04-25T08:37:42;15.90;73.40
42199;DHT22;27868;45.184;5.786;2023-04-25T08:40:27;16.00;73.30
42199;DHT22;27868;45.184;5.786;2023-04-25T08:43:14;16.10;72.40
42199;DHT22;27868;45.184;5.786;2023-04-25T08:46:00;16.20;72.40
42199;DHT22;27868;45.184;5.786;2023-04-25T08:48:45;16.30;71.50
42199;DHT22;27868;45.184;5.786;2023-04-25T08:51:32;16.40;71.30
42199;DHT22;27868;45.184;5.786;2023-04-25T08:54:17;16.40;71.70
42199;DHT22;27868;45.184;5.786;2023-04-25T08:57:05;16.40;70.20
42199;DHT22;27868;45.184;5.786;2023-04-25T08:59:49;16.40;68.50
42199;DHT22;27868;45.184;5.786;2023-04-25T09:02:34;16.30;69.80
42199;DHT22;27868;45.184;5.786;2023-04-25T09:05:19;16.20;71.50
42199;DHT22;27868;45.184;5.786;2023-04-25T09:08:03;16.30;72.90
42199;DHT22;27868;45.184;5.786;2023-04-25T09:10:47;16.20;73.90
42199;DHT22;27868;45.184;5.786;2023-04-25T09:13:32;16.20;73.80
42199;DHT22;27868;45.184;5.786;2023-04-25T09:16:17;16.20;74.60
42199;DHT22;27868;45.184;5.786;2023-04-25T09:19:05;16.20;74.60
42199;DHT22;27868;45.184;5.786;2023-04-25T09:21:50;16.30;73.50
42199;DHT22;27868;45.184;5.786;2023-04-25T09:24:42;16.30;74.70
42199;DHT22;27868;45.184;5.786;2023-04-25T09:27:27;16.40;74.40
42199;DHT22;27868;45.184;5.786;2023-04-25T09:30:12;16.40;74.10
42199;DHT22;27868;45.184;5.786;2023-04-25T09:35:50;16.50;74.50
42199;DHT22;27868;45.184;5.786;2023-04-25T09:38:40;16.60;74.30
42199;DHT22;27868;45.184;5.786;2023-04-25T09:41:25;16.60;74.30
42199;DHT22;27868;45.184;5.786;2023-04-25T09:44:12;16.50;74.20
42199;DHT22;27868;45.184;5.786;2023-04-25T09:46:57;16.60;73.70
42199;DHT22;27868;45.184;5.786;2023-04-25T09:49:43;16.50;74.80
42199;DHT22;27868;45.184;5.786;2023-04-25T09:52:28;16.50;72.70
42199;DHT22;27868;45.184;5.786;2023-04-25T09:55:13;16.60;73.90
42199;DHT22;27868;45.184;5.786;2023-04-25T09:57:57;16.50;68.60
42199;DHT22;27868;45.184;5.786;2023-04-25T10:00:44;16.50;71.60
42199;DHT22;27868;45.184;5.786;2023-04-25T10:03:30;16.60;71.50
42199;DHT22;27868;45.184;5.786;2023-04-25T10:06:18;16.70;71.00
42199;DHT22;27868;45.184;5.786;2023-04-25T10:09:03;16.60;71.00
42199;DHT22;27868;45.184;5.786;2023-04-25T10:11:48;16.70;71.60
42199;DHT22;27868;45.184;5.786;2023-04-25T10:14:35;16.50;69.20
42199;DHT22;27868;45.184;5.786;2023-04-25T10:17:20;16.60;70.30
42199;DHT22;27868;45.184;5.786;2023-04-25T10:20:05;16.60;70.30
42199;DHT22;27868;45.184;5.786;2023-04-25T10:22:55;16.80;70.10
42199;DHT22;27868;45.184;5.786;2023-04-25T10:25:42;16.80;69.70
42199;DHT22;27868;45.184;5.786;2023-04-25T10:28:27;16.90;69.70
42199;DHT22;27868;45.184;5.786;2023-04-25T10:31:12;17.10;69.10
42199;DHT22;27868;45.184;5.786;2023-04-25T10:34:00;17.10;67.10
42199;DHT22;27868;45.184;5.786;2023-04-25T10:36:52;16.90;66.60
42199;DHT22;27868;45.184;5.786;2023-04-25T10:39:40;17.00;68.80
42199;DHT22;27868;45.184;5.786;2023-04-25T10:42:25;17.10;65.30
42199;DHT22;27868;45.184;5.786;2023-04-25T10:45:10;17.10;67.10
42199;DHT22;27868;45.184;5.786;2023-04-25T10:47:54;17.20;66.70
42199;DHT22;27868;45.184;5.786;2023-04-25T10:50:39;17.20;65.20
42199;DHT22;27868;45.184;5.786;2023-04-25T10:53:24;17.20;66.20
42199;DHT22;27868;45.184;5.786;2023-04-25T10:56:10;17.30;66.10
42199;DHT22;27868;45.184;5.786;2023-04-25T10:59:08;17.40;66.40
42199;DHT22;27868;45.184;5.786;2023-04-25T11:01:54;17.50;67.40
42199;DHT22;27868;45.184;5.786;2023-04-25T11:04:40;17.50;66.20
42199;DHT22;27868;45.184;5.786;2023-04-25T11:10:15;17.80;66.50
42199;DHT22;27868;45.184;5.786;2023-04-25T11:12:59;18.00;66.00
42199;DHT22;27868;45.184;5.786;2023-04-25T11:15:44;18.20;65.20
42199;DHT22;27868;45.184;5.786;2023-04-25T11:18:28;18.40;63.30
42199;DHT22;27868;45.184;5.786;2023-04-25T11:21:13;18.60;61.60
42199;DHT22;27868;45.184;5.786;2023-04-25T11:23:57;18.80;58.50
42199;DHT22;27868;45.184;5.786;2023-04-25T11:26:42;19.10;59.20
42199;DHT22;27868;45.184;5.786;2023-04-25T11:29:27;19.30;60.20
42199;DHT22;27868;45.184;5.786;2023-04-25T11:32:12;19.40;59.00
42199;DHT22;27868;45.184;5.786;2023-04-25T11:34:56;19.40;58.90
42199;DHT22;27868;45.184;5.786;2023-04-25T11:37:42;19.50;60.70
42199;DHT22;27868;45.184;5.786;2023-04-25T11:40:27;19.70;58.90
42199;DHT22;27868;45.184;5.786;2023-04-25T11:43:11;19.70;58.00
42199;DHT22;27868;45.184;5.786;2023-04-25T11:45:56;19.70;55.70
42199;DHT22;27868;45.184;5.786;2023-04-25T11:48:40;19.60;57.30
42199;DHT22;27868;45.184;5.786;2023-04-25T11:51:25;19.50;58.00
42199;DHT22;27868;45.184;5.786;2023-04-25T11:54:10;19.70;59.80
42199;DHT22;27868;45.184;5.786;2023-04-25T11:56:55;19.80;59.00
42199;DHT22;27868;45.184;5.786;2023-04-25T11:59:40;19.70;59.30
42199;DHT22;27868;45.184;5.786;2023-04-25T12:02:25;19.80;59.30
42199;DHT22;27868;45.184;5.786;2023-04-25T12:05:12;19.90;58.10
42199;DHT22;27868;45.184;5.786;2023-04-25T12:07:57;20.00;54.00
42199;DHT22;27868;45.184;5.786;2023-04-25T12:10:42;20.00;55.00
42199;DHT22;27868;45.184;5.786;2023-04-25T12:13:27;20.00;56.50
42199;DHT22;27868;45.184;5.786;2023-04-25T12:16:12;20.00;55.70
42199;DHT22;27868;45.184;5.786;2023-04-25T12:18:56;19.80;54.70
42199;DHT22;27868;45.184;5.786;2023-04-25T12:21:44;19.80;56.20
42199;DHT22;27868;45.184;5.786;2023-04-25T12:24:28;19.80;56.90
42199;DHT22;27868;45.184;5.786;2023-04-25T12:27:14;20.00;55.70
42199;DHT22;27868;45.184;5.786;2023-04-25T12:30:03;20.00;56.20
42199;DHT22;27868;45.184;5.786;2023-04-25T12:32:48;20.00;53.70
42199;DHT22;27868;45.184;5.786;2023-04-25T12:35:32;20.00;54.50
42199;DHT22;27868;45.184;5.786;2023-04-25T12:38:20;20.00;54.50
42199;DHT22;27868;45.184;5.786;2023-04-25T12:41:05;19.80;53.50
42199;DHT22;27868;45.184;5.786;2023-04-25T12:43:50;20.00;55.10
42199;DHT22;27868;45.184;5.786;2023-04-25T12:46:35;20.00;54.30
42199;DHT22;27868;45.184;5.786;2023-04-25T12:49:19;20.20;55.20
42199;DHT22;27868;45.184;5.786;2023-04-25T12:52:04;20.10;54.40
42199;DHT22;27868;45.184;5.786;2023-04-25T12:54:49;20.30;52.70
42199;DHT22;27868;45.184;5.786;2023-04-25T12:57:34;20.40;54.30
42199;DHT22;27868;45.184;5.786;2023-04-25T13:00:18;20.40;54.10
42199;DHT22;27868;45.184;5.786;2023-04-25T13:03:04;20.70;52.30
42199;DHT22;27868;45.184;5.786;2023-04-25T13:05:49;20.60;50.00
42199;DHT22;27868;45.184;5.786;2023-04-25T13:08:34;20.60;51.20
42199;DHT22;27868;45.184;5.786;2023-04-25T13:11:21;20.60;46.50
42199;DHT22;27868;45.184;5.786;2023-04-25T13:14:05;20.40;50.60
42199;DHT22;27868;45.184;5.786;2023-04-25T13:16:50;20.30;50.60
42199;DHT22;27868;45.184;5.786;2023-04-25T13:19:35;20.50;51.80
42199;DHT22;27868;45.184;5.786;2023-04-25T13:22:19;20.60;48.90
42199;DHT22;27868;45.184;5.786;2023-04-25T13:25:05;20.70;50.30
42199;DHT22;27868;45.184;5.786;2023-04-25T13:27:50;20.80;51.90
42199;DHT22;27868;45.184;5.786;2023-04-25T13:30:34;20.90;50.60
42199;DHT22;27868;45.184;5.786;2023-04-25T13:33:19;20.70;47.30
42199;DHT22;27868;45.184;5.786;2023-04-25T13:36:04;20.80;48.20
42199;DHT22;27868;45.184;5.786;2023-04-25T13:38:49;20.80;47.40
42199;DHT22;27868;45.184;5.786;2023-04-25T13:41:34;20.90;49.30
42199;DHT22;27868;45.184;5.786;2023-04-25T13:44:18;21.00;48.20
42199;DHT22;27868;45.184;5.786;2023-04-25T13:47:03;21.00;48.10
42199;DHT22;27868;45.184;5.786;2023-04-25T13:49:47;20.70;45.80
42199;DHT22;27868;45.184;5.786;2023-04-25T13:52:32;20.70;45.40
42199;DHT22;27868;45.184;5.786;2023-04-25T13:55:16;20.80;48.30
42199;DHT22;27868;45.184;5.786;2023-04-25T13:58:01;20.90;48.80
42199;DHT22;27868;45.184;5.786;2023-04-25T14:00:51;20.90;43.50
42199;DHT22;27868;45.184;5.786;2023-04-25T14:03:35;20.90;41.70
42199;DHT22;27868;45.184;5.786;2023-04-25T14:06:20;20.70;45.50
42199;DHT22;27868;45.184;5.786;2023-04-25T14:09:07;20.90;41.50
42199;DHT22;27868;45.184;5.786;2023-04-25T14:11:54;20.90;45.90
42199;DHT22;27868;45.184;5.786;2023-04-25T14:14:39;21.00;44.60
42199;DHT22;27868;45.184;5.786;2023-04-25T14:17:23;21.10;45.90
42199;DHT22;27868;45.184;5.786;2023-04-25T14:20:08;21.30;44.90
42199;DHT22;27868;45.184;5.786;2023-04-25T14:22:53;21.20;45.60
42199;DHT22;27868;45.184;5.786;2023-04-25T14:25:40;21.20;46.30
42199;DHT22;27868;45.184;5.786;2023-04-25T14:28:26;21.10;46.00
42199;DHT22;27868;45.184;5.786;2023-04-25T14:31:10;21.10;46.50
42199;DHT22;27868;45.184;5.786;2023-04-25T14:33:55;21.20;45.90
42199;DHT22;27868;45.184;5.786;2023-04-25T14:36:40;20.80;43.40
42199;DHT22;27868;45.184;5.786;2023-04-25T14:39:24;20.80;44.20
42199;DHT22;27868;45.184;5.786;2023-04-25T14:42:09;20.90;45.80
42199;DHT22;27868;45.184;5.786;2023-04-25T14:44:53;20.90;43.00
42199;DHT22;27868;45.184;5.786;2023-04-25T14:47:38;20.90;43.30
42199;DHT22;27868;45.184;5.786;2023-04-25T14:50:22;20.80;44.00
42199;DHT22;27868;45.184;5.786;2023-04-25T14:53:07;20.70;46.60
42199;DHT22;27868;45.184;5.786;2023-04-25T14:55:51;20.70;47.80
42199;DHT22;27868;45.184;5.786;2023-04-25T14:58:36;20.60;44.80
42199;DHT22;27868;45.184;5.786;2023-04-25T15:01:21;20.40;45.10
42199;DHT22;27868;45.184;5.786;2023-04-25T15:04:06;20.40;47.30
42199;DHT22;27868;45.184;5.786;2023-04-25T15:06:50;20.50;46.40
42199;DHT22;27868;45.184;5.786;2023-04-25T15:09:35;20.40;47.30
42199;DHT22;27868;45.184;5.786;2023-04-25T15:12:20;20.50;48.10
42199;DHT22;27868;45.184;5.786;2023-04-25T15:15:04;20.40;46.50
42199;DHT22;27868;45.184;5.786;2023-04-25T15:17:50;20.50;44.30
42199;DHT22;27868;45.184;5.786;2023-04-25T15:20:35;20.50;45.30
42199;DHT22;27868;45.184;5.786;2023-04-25T15:23:20;20.30;45.90
42199;DHT22;27868;45.184;5.786;2023-04-25T15:26:05;20.30;47.00
42199;DHT22;27868;45.184;5.786;2023-04-25T15:28:50;20.30;45.20
42199;DHT22;27868;45.184;5.786;2023-04-25T15:31:34;20.20;45.20
42199;DHT22;27868;45.184;5.786;2023-04-25T15:34:19;20.10;43.10
42199;DHT22;27868;45.184;5.786;2023-04-25T15:37:03;19.90;44.10
42199;DHT22;27868;45.184;5.786;2023-04-25T15:39:48;19.90;46.30
42199;DHT22;27868;45.184;5.786;2023-04-25T15:42:43;19.70;44.70
42199;DHT22;27868;45.184;5.786;2023-04-25T15:45:31;19.70;46.00
42199;DHT22;27868;45.184;5.786;2023-04-25T15:48:16;19.70;48.40
42199;DHT22;27868;45.184;5.786;2023-04-25T15:51:00;19.50;48.40
42199;DHT22;27868;45.184;5.786;2023-04-25T15:53:45;19.50;48.50
42199;DHT22;27868;45.184;5.786;2023-04-25T15:56:30;19.50;49.00
42199;DHT22;27868;45.184;5.786;2023-04-25T15:59:15;19.40;45.50
42199;DHT22;27868;45.184;5.786;2023-04-25T16:01:59;19.30;46.40
42199;DHT22;27868;45.184;5.786;2023-04-25T16:04:44;19.30;47.90
42199;DHT22;27868;45.184;5.786;2023-04-25T16:07:30;19.40;48.50
42199;DHT22;27868;45.184;5.786;2023-04-25T16:10:15;19.40;49.00
42199;DHT22;27868;45.184;5.786;2023-04-25T16:13:03;19.30;48.40
42199;DHT22;27868;45.184;5.786;2023-04-25T16:15:47;19.20;46.90
42199;DHT22;27868;45.184;5.786;2023-04-25T16:18:32;19.20;49.50
42199;DHT22;27868;45.184;5.786;2023-04-25T16:21:17;19.10;48.90
42199;DHT22;27868;45.184;5.786;2023-04-25T16:24:01;19.10;48.30
42199;DHT22;27868;45.184;5.786;2023-04-25T16:26:45;19.10;49.30
42199;DHT22;27868;45.184;5.786;2023-04-25T16:29:30;19.10;49.80
42199;DHT22;27868;45.184;5.786;2023-04-25T16:32:15;19.10;47.50
42199;DHT22;27868;45.184;5.786;2023-04-25T16:34:59;19.10;47.40
42199;DHT22;27868;45.184;5.786;2023-04-25T16:37:44;19.10;49.30
42199;DHT22;27868;45.184;5.786;2023-04-25T16:40:28;19.10;49.50
42199;DHT22;27868;45.184;5.786;2023-04-25T16:43:13;19.00;48.50
42199;DHT22;27868;45.184;5.786;2023-04-25T16:45:58;19.00;50.10
42199;DHT22;27868;45.184;5.786;2023-04-25T16:48:42;18.90;49.50
42199;DHT22;27868;45.184;5.786;2023-04-25T16:51:27;18.90;49.70
42199;DHT22;27868;45.184;5.786;2023-04-25T16:54:12;18.90;48.60
42199;DHT22;27868;45.184;5.786;2023-04-25T16:56:56;18.80;49.90
42199;DHT22;27868;45.184;5.786;2023-04-25T16:59:43;18.80;49.70
42199;DHT22;27868;45.184;5.786;2023-04-25T17:02:27;18.80;49.40
42199;DHT22;27868;45.184;5.786;2023-04-25T17:05:12;18.60;47.20
42199;DHT22;27868;45.184;5.786;2023-04-25T17:07:56;18.50;48.90
42199;DHT22;27868;45.184;5.786;2023-04-25T17:10:41;18.40;48.20
42199;DHT22;27868;45.184;5.786;2023-04-25T17:13:25;18.40;47.50
42199;DHT22;27868;45.184;5.786;2023-04-25T17:16:10;18.40;49.00
42199;DHT22;27868;45.184;5.786;2023-04-25T17:18:56;18.30;49.80
42199;DHT22;27868;45.184;5.786;2023-04-25T17:21:41;18.30;49.60
42199;DHT22;27868;45.184;5.786;2023-04-25T17:24:26;18.20;48.90
42199;DHT22;27868;45.184;5.786;2023-04-25T17:27:10;18.20;50.30
42199;DHT22;27868;45.184;5.786;2023-04-25T17:29:55;18.10;48.80
42199;DHT22;27868;45.184;5.786;2023-04-25T17:32:39;18.00;49.10
42199;DHT22;27868;45.184;5.786;2023-04-25T17:35:24;18.00;50.90
42199;DHT22;27868;45.184;5.786;2023-04-25T17:38:09;18.00;51.20
42199;DHT22;27868;45.184;5.786;2023-04-25T17:40:53;17.90;49.80
42199;DHT22;27868;45.184;5.786;2023-04-25T17:43:38;17.90;51.80
42199;DHT22;27868;45.184;5.786;2023-04-25T17:46:22;17.90;51.00
42199;DHT22;27868;45.184;5.786;2023-04-25T17:49:07;17.80;51.50
42199;DHT22;27868;45.184;5.786;2023-04-25T17:51:51;17.80;51.40
42199;DHT22;27868;45.184;5.786;2023-04-25T17:54:36;17.80;52.10
42199;DHT22;27868;45.184;5.786;2023-04-25T17:57:21;17.70;52.50
42199;DHT22;27868;45.184;5.786;2023-04-25T18:00:07;17.70;52.60
42199;DHT22;27868;45.184;5.786;2023-04-25T18:02:52;17.70;52.80
42199;DHT22;27868;45.184;5.786;2023-04-25T18:05:37;17.60;52.80
42199;DHT22;27868;45.184;5.786;2023-04-25T18:08:21;17.80;53.00
42199;DHT22;27868;45.184;5.786;2023-04-25T18:11:06;17.60;52.70
42199;DHT22;27868;45.184;5.786;2023-04-25T18:13:51;17.50;52.90
42199;DHT22;27868;45.184;5.786;2023-04-25T18:16:35;17.30;54.00
42199;DHT22;27868;45.184;5.786;2023-04-25T18:19:20;17.30;53.80
42199;DHT22;27868;45.184;5.786;2023-04-25T18:22:05;17.30;53.80
42199;DHT22;27868;45.184;5.786;2023-04-25T18:24:50;17.20;54.10
42199;DHT22;27868;45.184;5.786;2023-04-25T18:27:39;17.10;54.40
42199;DHT22;27868;45.184;5.786;2023-04-25T18:30:24;17.10;54.40
42199;DHT22;27868;45.184;5.786;2023-04-25T18:33:09;17.00;54.30
42199;DHT22;27868;45.184;5.786;2023-04-25T18:35:54;17.00;55.10
42199;DHT22;27868;45.184;5.786;2023-04-25T18:38:39;16.90;55.10
42199;DHT22;27868;45.184;5.786;2023-04-25T18:41:23;16.90;55.30
42199;DHT22;27868;45.184;5.786;2023-04-25T18:44:08;16.90;55.50
42199;DHT22;27868;45.184;5.786;2023-04-25T18:46:52;16.90;55.90
42199;DHT22;27868;45.184;5.786;2023-04-25T18:49:38;16.90;56.30
42199;DHT22;27868;45.184;5.786;2023-04-25T18:52:22;16.90;56.40
42199;DHT22;27868;45.184;5.786;2023-04-25T18:55:07;16.90;56.70
42199;DHT22;27868;45.184;5.786;2023-04-25T18:57:51;16.90;56.80
42199;DHT22;27868;45.184;5.786;2023-04-25T19:00:35;16.90;57.10
42199;DHT22;27868;45.184;5.786;2023-04-25T19:03:20;16.90;57.20
42199;DHT22;27868;45.184;5.786;2023-04-25T19:06:05;16.80;57.40
42199;DHT22;27868;45.184;5.786;2023-04-25T19:08:50;16.70;57.80
42199;DHT22;27868;45.184;5.786;2023-04-25T19:11:35;16.70;58.10
42199;DHT22;27868;45.184;5.786;2023-04-25T19:14:20;16.60;58.20
42199;DHT22;27868;45.184;5.786;2023-04-25T19:17:04;16.60;58.40
42199;DHT22;27868;45.184;5.786;2023-04-25T19:19:49;16.50;58.40
42199;DHT22;27868;45.184;5.786;2023-04-25T19:22:33;16.50;58.80
42199;DHT22;27868;45.184;5.786;2023-04-25T19:25:18;16.40;59.00
42199;DHT22;27868;45.184;5.786;2023-04-25T19:28:04;16.30;59.60
42199;DHT22;27868;45.184;5.786;2023-04-25T19:30:51;16.30;59.80
42199;DHT22;27868;45.184;5.786;2023-04-25T19:33:35;16.20;60.20
42199;DHT22;27868;45.184;5.786;2023-04-25T19:36:20;16.10;60.40
42199;DHT22;27868;45.184;5.786;2023-04-25T19:39:06;16.10;60.60
42199;DHT22;27868;45.184;5.786;2023-04-25T19:41:51;16.00;60.50
42199;DHT22;27868;45.184;5.786;2023-04-25T19:44:37;16.00;60.70
42199;DHT22;27868;45.184;5.786;2023-04-25T19:47:22;16.00;60.80
42199;DHT22;27868;45.184;5.786;2023-04-25T19:50:07;15.90;60.80
42199;DHT22;27868;45.184;5.786;2023-04-25T19:52:52;15.90;61.40
42199;DHT22;27868;45.184;5.786;2023-04-25T19:55:37;15.80;61.20
42199;DHT22;27868;45.184;5.786;2023-04-25T19:58:22;15.80;61.70
42199;DHT22;27868;45.184;5.786;2023-04-25T20:01:06;15.70;62.20
42199;DHT22;27868;45.184;5.786;2023-04-25T20:03:51;15.60;62.40
42199;DHT22;27868;45.184;5.786;2023-04-25T20:06:35;15.60;62.40
42199;DHT22;27868;45.184;5.786;2023-04-25T20:09:20;15.50;62.60
42199;DHT22;27868;45.184;5.786;2023-04-25T20:12:04;15.40;63.10
42199;DHT22;27868;45.184;5.786;2023-04-25T20:14:49;15.30;63.30
42199;DHT22;27868;45.184;5.786;2023-04-25T20:17:34;15.20;63.60
42199;DHT22;27868;45.184;5.786;2023-04-25T20:20:19;15.20;63.50
42199;DHT22;27868;45.184;5.786;2023-04-25T20:23:03;15.10;63.30
42199;DHT22;27868;45.184;5.786;2023-04-25T20:25:48;15.10;64.30
42199;DHT22;27868;45.184;5.786;2023-04-25T20:28:32;15.00;63.70
42199;DHT22;27868;45.184;5.786;2023-04-25T20:31:18;15.10;63.90
42199;DHT22;27868;45.184;5.786;2023-04-25T20:34:02;15.10;63.90
42199;DHT22;27868;45.184;5.786;2023-04-25T20:36:47;15.10;63.60
42199;DHT22;27868;45.184;5.786;2023-04-25T20:39:32;15.10;63.90
42199;DHT22;27868;45.184;5.786;2023-04-25T20:42:16;15.00;64.10
42199;DHT22;27868;45.184;5.786;2023-04-25T20:45:01;14.90;63.90
42199;DHT22;27868;45.184;5.786;2023-04-25T20:47:50;14.90;63.90
42199;DHT22;27868;45.184;5.786;2023-04-25T20:50:34;14.90;64.40
42199;DHT22;27868;45.184;5.786;2023-04-25T20:53:19;14.90;64.30
42199;DHT22;27868;45.184;5.786;2023-04-25T20:56:04;14.80;63.90
42199;DHT22;27868;45.184;5.786;2023-04-25T20:58:50;14.70;64.00
42199;DHT22;27868;45.184;5.786;2023-04-25T21:01:35;14.60;64.90
42199;DHT22;27868;45.184;5.786;2023-04-25T21:04:20;14.60;64.80
42199;DHT22;27868;45.184;5.786;2023-04-25T21:07:05;14.60;65.00
42199;DHT22;27868;45.184;5.786;2023-04-25T21:09:49;14.50;65.30
42199;DHT22;27868;45.184;5.786;2023-04-25T21:12:34;14.50;64.60
42199;DHT22;27868;45.184;5.786;2023-04-25T21:15:19;14.40;65.50
42199;DHT22;27868;45.184;5.786;2023-04-25T21:18:04;14.40;65.30
42199;DHT22;27868;45.184;5.786;2023-04-25T21:20:50;14.40;65.10
42199;DHT22;27868;45.184;5.786;2023-04-25T21:23:34;14.50;64.70
42199;DHT22;27868;45.184;5.786;2023-04-25T21:26:20;14.50;64.80
42199;DHT22;27868;45.184;5.786;2023-04-25T21:29:05;14.40;64.70
42199;DHT22;27868;45.184;5.786;2023-04-25T21:31:49;14.30;64.80
42199;DHT22;27868;45.184;5.786;2023-04-25T21:34:34;14.20;65.50
42199;DHT22;27868;45.184;5.786;2023-04-25T21:37:19;14.10;65.20
42199;DHT22;27868;45.184;5.786;2023-04-25T21:40:04;14.00;65.60
42199;DHT22;27868;45.184;5.786;2023-04-25T21:42:49;14.00;66.00
42199;DHT22;27868;45.184;5.786;2023-04-25T21:45:36;14.00;65.80
42199;DHT22;27868;45.184;5.786;2023-04-25T21:48:21;14.00;65.90
42199;DHT22;27868;45.184;5.786;2023-04-25T21:51:06;14.00;66.30
42199;DHT22;27868;45.184;5.786;2023-04-25T21:53:50;14.00;66.10
42199;DHT22;27868;45.184;5.786;2023-04-25T21:56:35;13.90;66.10
42199;DHT22;27868;45.184;5.786;2023-04-25T21:59:21;14.00;66.60
42199;DHT22;27868;45.184;5.786;2023-04-25T22:02:08;14.00;66.40
42199;DHT22;27868;45.184;5.786;2023-04-25T22:04:52;13.90;66.50
42199;DHT22;27868;45.184;5.786;2023-04-25T22:07:37;13.90;66.70
42199;DHT22;27868;45.184;5.786;2023-04-25T22:10:21;13.90;67.00